Time;durP1;ratioP1;P1;durP2;ratioP2;P2;SDS_P1;SDS_P2;PMS_P1;PMS_P2;Temp;Humidity;BMP_temperature;BMP_pressure;BME280_temperature;BME280_humidity;BME280_pressure;Samples;Min_cycle;Max_cycle;Signal;HPM_P1;HPM_P2
2023/05/22 00:00:17;;;;;;;14.93;9.23;;;15.70;99.90;;;;;;4964782;28;20195;-84
2023/05/22 00:02:43;;;;;;;15.30;10.10;;;15.70;99.90;;;;;;4963982;28;20258;-82
2023/05/22 00:05:13;;;;;;;14.30;10.87;;;15.70;99.90;;;;;;4979491;28;20259;-83
2023/05/22 00:07:41;;;;;;;22.87;11.70;;;15.80;99.90;;;;;;4980723;28;20223;-81
2023/05/22 00:10:08;;;;;;;16.37;9.80;;;15.80;99.90;;;;;;4962565;28;20258;-83
2023/05/22 00:12:36;;;;;;;13.87;10.33;;;15.80;99.90;;;;;;4963656;28;20487;-80
2023/05/22 00:15:02;;;;;;;13.77;9.33;;;15.80;99.90;;;;;;4979050;28;20239;-81
2023/05/22 00:17:29;;;;;;;20.33;10.27;;;15.80;99.90;;;;;;4978906;28;20583;-81
2023/05/22 00:19:55;;;;;;;19.67;12.07;;;15.80;99.90;;;;;;4978598;28;20220;-81
2023/05/22 00:22:21;;;;;;;10.83;9.10;;;15.90;99.90;;;;;;4962948;28;20755;-81
2023/05/22 00:24:47;;;;;;;14.90;9.87;;;15.90;99.90;;;;;;4978762;28;20720;-81
2023/05/22 00:27:12;;;;;;;21.87;11.00;;;15.90;99.90;;;;;;4947500;28;20351;-81
2023/05/22 00:29:38;;;;;;;17.57;11.77;;;16.00;99.90;;;;;;4995771;28;20219;-81
2023/05/22 00:32:05;;;;;;;14.90;10.07;;;16.00;99.90;;;;;;4963811;28;20760;-80
2023/05/22 00:34:33;;;;;;;14.97;8.27;;;16.00;99.90;;;;;;4963317;28;20259;-81
2023/05/22 00:36:59;;;;;;;16.00;11.13;;;16.00;99.90;;;;;;4980426;28;20266;-80
2023/05/22 00:39:25;;;;;;;19.63;10.87;;;15.90;99.90;;;;;;4964117;28;20196;-83
2023/05/22 00:41:51;;;;;;;19.07;10.30;;;15.90;99.90;;;;;;4947978;28;20275;-81
2023/05/22 00:44:16;;;;;;;18.17;11.37;;;15.90;99.90;;;;;;4979855;28;20299;-81
2023/05/22 00:46:42;;;;;;;20.53;13.80;;;15.90;99.90;;;;;;4980937;28;20728;-84
2023/05/22 00:49:08;;;;;;;18.23;12.03;;;16.00;99.90;;;;;;4979034;28;20311;-81
2023/05/22 00:51:34;;;;;;;24.07;12.93;;;16.00;99.90;;;;;;4980984;28;20356;-81
2023/05/22 00:54:00;;;;;;;21.07;13.27;;;16.00;99.90;;;;;;4979634;28;20262;-82
2023/05/22 00:56:28;;;;;;;21.10;12.83;;;16.00;99.90;;;;;;4963454;28;20223;-81
2023/05/22 00:58:54;;;;;;;21.03;11.07;;;16.00;99.90;;;;;;4962026;28;20219;-85
2023/05/22 01:01:21;;;;;;;17.07;11.10;;;16.00;99.90;;;;;;4962544;28;20331;-81
2023/05/22 01:03:50;;;;;;;21.40;13.37;;;16.10;99.90;;;;;;4962849;28;20677;-81
2023/05/22 01:06:17;;;;;;;19.27;13.00;;;16.10;99.90;;;;;;4978700;28;20196;-81
2023/05/22 01:08:43;;;;;;;19.07;12.70;;;16.10;99.90;;;;;;4979531;28;21059;-85
2023/05/22 01:11:21;;;;;;;18.10;11.37;;;16.20;99.90;;;;;;4979849;28;20306;-80
2023/05/22 01:14:07;;;;;;;21.80;11.47;;;16.20;99.90;;;;;;4979556;28;20274;-81
2023/05/22 01:16:47;;;;;;;22.60;11.43;;;16.20;99.90;;;;;;4979524;28;20403;-81
2023/05/22 01:19:30;;;;;;;19.27;12.73;;;16.20;99.90;;;;;;4980185;28;20242;-83
2023/05/22 01:22:02;;;;;;;21.83;12.53;;;16.20;99.90;;;;;;4981113;28;20243;-80
2023/05/22 01:24:40;;;;;;;21.33;11.93;;;16.20;99.90;;;;;;4983587;28;20777;-80
2023/05/22 01:27:18;;;;;;;18.43;11.83;;;16.30;99.90;;;;;;4982677;28;20740;-85
2023/05/22 01:30:00;;;;;;;17.47;11.80;;;16.20;99.90;;;;;;4983350;28;20602;-82
2023/05/22 01:32:28;;;;;;;23.10;12.03;;;16.20;99.90;;;;;;4984111;28;20223;-80
2023/05/22 01:34:58;;;;;;;24.87;12.47;;;16.20;99.90;;;;;;4984582;28;20227;-81
2023/05/22 01:37:24;;;;;;;19.90;13.13;;;16.10;99.90;;;;;;4998822;28;20311;-81
2023/05/22 01:39:54;;;;;;;22.10;12.67;;;16.20;99.90;;;;;;4984298;28;20192;-80
2023/05/22 01:42:20;;;;;;;21.83;12.43;;;16.10;99.90;;;;;;4982844;28;20199;-84
2023/05/22 01:44:49;;;;;;;21.93;12.13;;;16.20;99.90;;;;;;4984751;28;20223;-82
2023/05/22 01:47:16;;;;;;;18.57;11.77;;;16.10;99.90;;;;;;4966212;28;20216;-80
2023/05/22 01:49:43;;;;;;;16.50;11.63;;;16.10;99.90;;;;;;4984148;28;20295;-83
2023/05/22 01:52:17;;;;;;;14.63;9.80;;;16.10;99.90;;;;;;4982997;28;20309;-84
2023/05/22 01:55:02;;;;;;;18.93;12.07;;;16.10;99.90;;;;;;4983532;28;20282;-82
2023/05/22 01:57:35;;;;;;;24.37;12.47;;;16.00;99.90;;;;;;4983570;28;20215;-82
2023/05/22 02:00:14;;;;;;;17.50;11.57;;;16.00;99.90;;;;;;4999184;28;20275;-82
2023/05/22 02:02:45;;;;;;;14.40;10.57;;;16.00;99.90;;;;;;4983477;28;20224;-82
2023/05/22 02:05:12;;;;;;;26.23;13.23;;;16.10;99.90;;;;;;4984213;28;20363;-83
2023/05/22 02:07:40;;;;;;;18.97;11.80;;;16.20;99.90;;;;;;4983353;28;20333;-83
2023/05/22 02:10:08;;;;;;;20.07;12.37;;;16.20;99.90;;;;;;4984375;28;20274;-82
2023/05/22 02:12:34;;;;;;;17.17;11.13;;;16.30;99.90;;;;;;4983382;28;20665;-81
2023/05/22 02:15:00;;;;;;;27.37;13.70;;;16.20;99.90;;;;;;4965920;28;20255;-82
2023/05/22 02:17:26;;;;;;;25.37;14.03;;;16.20;99.90;;;;;;4982825;28;20342;-85
2023/05/22 02:19:52;;;;;;;19.50;11.57;;;16.20;99.90;;;;;;4966792;28;20571;-81
2023/05/22 02:22:18;;;;;;;20.53;12.67;;;16.20;99.90;;;;;;4949184;28;20216;-82
2023/05/22 02:24:48;;;;;;;18.07;12.30;;;16.30;99.90;;;;;;4983026;28;20192;-82
2023/05/22 02:27:15;;;;;;;24.40;13.80;;;16.30;99.90;;;;;;4982027;28;20697;-85
2023/05/22 02:29:41;;;;;;;13.27;7.93;;;16.20;99.90;;;;;;4950586;28;20239;-81
2023/05/22 02:32:07;;;;;;;22.20;12.33;;;16.20;99.90;;;;;;4966412;28;20278;-84
2023/05/22 02:34:33;;;;;;;16.20;10.10;;;16.20;99.90;;;;;;4982591;28;20243;-83
2023/05/22 02:37:02;;;;;;;12.80;9.70;;;16.10;99.90;;;;;;4981734;28;20684;-81
2023/05/22 02:39:29;;;;;;;12.10;8.37;;;16.00;99.90;;;;;;4981577;28;20206;-82
2023/05/22 02:41:54;;;;;;;13.90;8.63;;;15.90;99.90;;;;;;4982094;28;20224;-83
2023/05/22 02:44:20;;;;;;;15.73;10.87;;;15.70;99.90;;;;;;4981277;28;20286;-81
2023/05/22 02:46:46;;;;;;;15.47;10.70;;;15.60;99.90;;;;;;4982658;28;20684;-81
2023/05/22 02:49:13;;;;;;;17.77;10.37;;;15.50;99.90;;;;;;4966085;28;20226;-83
2023/05/22 02:51:39;;;;;;;20.53;12.20;;;15.50;99.90;;;;;;4983877;28;20188;-81
2023/05/22 02:54:05;;;;;;;18.33;10.53;;;15.40;99.90;;;;;;4981715;28;20290;-81
2023/05/22 02:56:30;;;;;;;13.80;9.93;;;15.30;99.90;;;;;;4965899;28;20224;-81
2023/05/22 02:58:56;;;;;;;15.43;10.50;;;15.20;99.90;;;;;;4980481;28;20693;-81
2023/05/22 03:01:22;;;;;;;21.30;13.20;;;15.20;99.90;;;;;;4982233;28;20215;-83
2023/05/22 03:03:48;;;;;;;22.77;11.90;;;15.20;99.90;;;;;;4965133;28;20243;-84
2023/05/22 03:06:14;;;;;;;22.93;12.87;;;15.10;99.90;;;;;;4949903;28;20188;-83
2023/05/22 03:08:42;;;;;;;19.70;11.53;;;15.10;99.90;;;;;;4981867;28;20223;-80
2023/05/22 03:11:09;;;;;;;18.33;11.63;;;15.00;99.90;;;;;;4981622;28;20577;-81
2023/05/22 03:13:35;;;;;;;16.87;11.20;;;15.00;99.90;;;;;;4981899;28;20239;-81
2023/05/22 03:16:01;;;;;;;18.57;11.67;;;15.00;99.90;;;;;;4981431;28;21492;-80
2023/05/22 03:18:27;;;;;;;16.50;11.40;;;14.90;99.90;;;;;;4981928;28;20203;-82
2023/05/22 03:20:53;;;;;;;21.07;12.90;;;15.00;99.90;;;;;;4981827;28;21300;-81
2023/05/22 03:23:23;;;;;;;16.57;11.43;;;15.00;99.90;;;;;;4980831;28;20253;-80
2023/05/22 03:25:50;;;;;;;22.57;12.57;;;15.00;99.90;;;;;;4997062;28;20232;-81
2023/05/22 03:28:15;;;;;;;19.50;11.90;;;15.00;99.90;;;;;;4964365;28;20231;-80
2023/05/22 03:30:41;;;;;;;19.47;9.57;;;15.00;99.90;;;;;;4982040;28;20258;-85
2023/05/22 03:33:07;;;;;;;19.17;11.93;;;15.00;99.90;;;;;;4981581;28;20239;-81
2023/05/22 03:35:33;;;;;;;17.80;12.40;;;15.10;99.90;;;;;;4979191;28;20266;-85
2023/05/22 03:37:58;;;;;;;23.37;13.83;;;15.20;99.90;;;;;;4963726;28;20220;-82
2023/05/22 03:40:24;;;;;;;25.50;13.00;;;15.20;99.90;;;;;;4979366;28;20220;-82
2023/05/22 03:42:50;;;;;;;15.50;11.80;;;15.30;99.90;;;;;;4981034;28;20203;-81
2023/05/22 03:45:15;;;;;;;25.63;13.60;;;15.30;99.90;;;;;;4981601;28;20291;-80
2023/05/22 03:47:41;;;;;;;23.80;12.43;;;15.40;99.90;;;;;;4980196;28;20254;-83
2023/05/22 03:50:07;;;;;;;17.10;12.50;;;15.40;99.90;;;;;;4980846;28;20694;-81
2023/05/22 03:52:33;;;;;;;20.27;13.70;;;15.50;99.90;;;;;;4979551;28;20236;-81
2023/05/22 03:54:59;;;;;;;27.20;13.13;;;15.50;99.90;;;;;;4963638;28;20234;-81
2023/05/22 03:57:25;;;;;;;21.67;13.03;;;15.60;99.90;;;;;;4964856;28;20196;-81
2023/05/22 03:59:50;;;;;;;24.53;12.73;;;15.60;99.90;;;;;;4979546;28;20232;-83
2023/05/22 04:02:16;;;;;;;23.60;12.37;;;15.60;99.90;;;;;;4979956;28;20235;-81
2023/05/22 04:04:45;;;;;;;19.17;12.40;;;15.70;99.90;;;;;;4978805;28;20235;-82
2023/05/22 04:07:12;;;;;;;25.73;12.43;;;15.70;99.90;;;;;;4979422;28;21201;-83
2023/05/22 04:09:39;;;;;;;21.53;13.10;;;15.70;99.90;;;;;;4978829;28;20204;-83
2023/05/22 04:12:05;;;;;;;20.40;11.90;;;15.70;99.90;;;;;;4979000;28;20218;-81
2023/05/22 04:14:31;;;;;;;20.90;12.47;;;15.80;99.90;;;;;;4978570;28;20825;-81
2023/05/22 04:16:58;;;;;;;19.40;11.97;;;15.80;99.90;;;;;;4979417;28;20224;-83
2023/05/22 04:19:26;;;;;;;19.37;11.17;;;15.80;99.90;;;;;;4963516;28;20223;-81
2023/05/22 04:21:53;;;;;;;20.37;9.37;;;15.80;99.90;;;;;;4979683;28;20187;-81
2023/05/22 04:24:21;;;;;;;17.90;10.70;;;15.70;99.90;;;;;;4980410;28;20199;-84
2023/05/22 04:26:48;;;;;;;22.97;10.53;;;15.50;99.90;;;;;;4981046;28;20223;-83
2023/05/22 04:29:15;;;;;;;13.77;7.80;;;15.40;99.90;;;;;;4980345;28;20235;-80
2023/05/22 04:31:44;;;;;;;9.97;8.00;;;15.30;99.90;;;;;;4995544;28;20251;-80
2023/05/22 04:34:11;;;;;;;11.27;7.47;;;15.30;99.90;;;;;;4979208;28;20293;-80
2023/05/22 04:36:37;;;;;;;13.47;8.33;;;15.30;99.90;;;;;;4980637;28;20196;-81
2023/05/22 04:39:03;;;;;;;14.07;8.37;;;15.30;99.90;;;;;;4979253;28;20235;-81
2023/05/22 04:41:29;;;;;;;7.23;5.70;;;15.40;99.90;;;;;;4995399;28;20662;-81
2023/05/22 04:43:55;;;;;;;10.07;5.70;;;15.40;99.90;;;;;;4947471;28;20239;-83
2023/05/22 04:46:21;;;;;;;11.30;6.33;;;15.50;99.90;;;;;;4994984;28;20215;-81
2023/05/22 04:48:47;;;;;;;11.07;6.17;;;15.60;99.90;;;;;;4963867;28;21415;-80
2023/05/22 04:51:13;;;;;;;23.20;7.67;;;15.60;99.90;;;;;;4963616;28;20197;-82
2023/05/22 04:53:39;;;;;;;13.07;6.07;;;15.60;99.90;;;;;;4979668;28;20430;-83
2023/05/22 04:56:06;;;;;;;13.40;5.70;;;15.70;99.90;;;;;;4980203;28;20709;-81
2023/05/22 04:58:32;;;;;;;8.90;6.23;;;15.70;99.90;;;;;;4980237;28;20227;-80
2023/05/22 05:00:58;;;;;;;5.93;4.40;;;15.80;99.90;;;;;;4980679;28;20509;-83
2023/05/22 05:03:27;;;;;;;9.03;5.47;;;15.80;99.90;;;;;;4981566;28;20250;-80
2023/05/22 05:05:53;;;;;;;16.27;6.07;;;15.90;99.90;;;;;;4996185;28;20233;-80
2023/05/22 05:08:19;;;;;;;18.27;6.83;;;16.00;99.90;;;;;;4979955;28;20230;-83
2023/05/22 05:10:44;;;;;;;12.83;5.43;;;16.00;99.90;;;;;;4981126;28;20299;-83
2023/05/22 05:13:10;;;;;;;6.57;3.83;;;16.10;99.90;;;;;;4980352;28;20775;-82
2023/05/22 05:15:36;;;;;;;11.17;6.10;;;16.10;99.90;;;;;;4964030;28;20196;-85
2023/05/22 05:18:02;;;;;;;17.87;5.47;;;16.10;99.90;;;;;;4963542;28;20231;-80
2023/05/22 05:20:29;;;;;;;9.03;5.57;;;16.10;99.90;;;;;;4979986;28;20237;-83
2023/05/22 05:22:55;;;;;;;8.23;5.20;;;16.10;99.90;;;;;;4980059;28;20231;-83
2023/05/22 05:25:21;;;;;;;14.20;5.33;;;16.20;99.90;;;;;;4981327;28;20219;-81
2023/05/22 05:27:46;;;;;;;12.53;5.20;;;16.20;99.90;;;;;;4943040;28;20331;-80
2023/05/22 05:30:12;;;;;;;14.10;4.63;;;16.30;99.90;;;;;;4994979;28;20408;-81
2023/05/22 05:32:38;;;;;;;7.27;4.33;;;16.30;99.90;;;;;;4963226;28;20231;-81
2023/05/22 05:35:04;;;;;;;11.40;4.47;;;16.40;99.90;;;;;;4962978;28;20302;-83
2023/05/22 05:37:30;;;;;;;7.77;4.63;;;16.50;99.90;;;;;;4980232;28;20242;-81
2023/05/22 05:39:55;;;;;;;7.87;3.93;;;16.60;99.90;;;;;;4947094;28;20219;-85
2023/05/22 05:42:21;;;;;;;3.20;2.73;;;16.70;99.90;;;;;;4946358;28;20190;-80
2023/05/22 05:44:47;;;;;;;4.70;3.40;;;16.70;99.90;;;;;;4980706;28;20270;-83
2023/05/22 05:47:13;;;;;;;6.93;4.10;;;16.80;99.90;;;;;;4979275;28;20289;-81
2023/05/22 05:49:38;;;;;;;5.33;3.30;;;16.70;99.90;;;;;;4978436;28;21139;-83
2023/05/22 05:52:04;;;;;;;8.03;3.43;;;16.70;99.90;;;;;;4979027;28;20242;-80
2023/05/22 05:54:30;;;;;;;5.93;2.73;;;16.80;99.90;;;;;;4979214;28;20208;-81
2023/05/22 05:56:56;;;;;;;8.53;3.13;;;16.90;99.90;;;;;;4945511;28;20220;-81
2023/05/22 05:59:23;;;;;;;3.27;2.43;;;17.00;99.90;;;;;;4978481;28;20224;-84
2023/05/22 06:01:49;;;;;;;6.27;3.00;;;17.40;99.90;;;;;;4961296;28;20235;-81
2023/05/22 06:04:15;;;;;;;4.70;2.97;;;17.50;99.90;;;;;;4963052;28;20228;-83
2023/05/22 06:06:41;;;;;;;4.90;3.63;;;17.40;99.90;;;;;;4963176;28;20264;-81
2023/05/22 06:09:08;;;;;;;4.40;3.20;;;17.30;99.90;;;;;;4980986;28;20687;-80
2023/05/22 06:11:34;;;;;;;5.70;3.37;;;17.10;99.90;;;;;;4983578;28;20230;-83
2023/05/22 06:14:04;;;;;;;12.00;4.17;;;16.90;99.90;;;;;;4982368;28;20232;-81
2023/05/22 06:16:30;;;;;;;10.27;4.17;;;16.80;99.90;;;;;;4981153;28;20242;-83
2023/05/22 06:18:57;;;;;;;6.70;3.80;;;16.70;99.90;;;;;;4982115;28;21074;-81
2023/05/22 06:21:23;;;;;;;5.10;3.77;;;16.60;99.90;;;;;;4982129;28;20213;-81
2023/05/22 06:23:50;;;;;;;10.47;3.47;;;16.50;99.90;;;;;;4982698;28;20399;-82
2023/05/22 06:26:16;;;;;;;3.10;2.80;;;16.30;99.90;;;;;;4974415;28;20569;-81
2023/05/22 06:28:43;;;;;;;6.80;4.47;;;16.20;99.90;;;;;;4975830;28;20234;-84
2023/05/22 06:31:08;;;;;;;4.47;3.10;;;16.20;99.90;;;;;;4978622;28;20278;-81
2023/05/22 06:33:39;;;;;;;5.77;2.63;;;16.10;99.90;;;;;;4980773;28;21053;-81
2023/05/22 06:36:07;;;;;;;10.53;3.33;;;16.10;99.90;;;;;;4961368;28;20236;-80
2023/05/22 06:38:33;;;;;;;5.13;2.73;;;16.00;99.90;;;;;;4995737;28;20673;-82
2023/05/22 06:40:59;;;;;;;10.53;3.77;;;15.90;99.90;;;;;;4978328;28;20303;-81
2023/05/22 06:43:25;;;;;;;5.73;3.83;;;15.80;99.90;;;;;;4976745;28;20215;-81
2023/05/22 06:45:50;;;;;;;5.70;3.33;;;15.70;99.90;;;;;;4974050;28;20596;-82
2023/05/22 06:48:16;;;;;;;9.27;3.77;;;15.70;99.90;;;;;;4964194;28;20189;-81
2023/05/22 06:50:42;;;;;;;4.33;3.30;;;15.60;99.90;;;;;;4980045;28;20727;-83
2023/05/22 06:53:08;;;;;;;7.83;3.33;;;15.60;99.90;;;;;;4979864;28;20822;-80
2023/05/22 06:55:33;;;;;;;6.23;3.50;;;15.50;99.90;;;;;;4963532;28;20240;-81
2023/05/22 06:57:59;;;;;;;9.50;4.20;;;15.40;99.90;;;;;;4975202;28;20196;-82
2023/05/22 07:00:25;;;;;;;6.83;4.00;;;15.40;99.90;;;;;;4962869;28;20721;-82
2023/05/22 07:02:51;;;;;;;7.73;3.93;;;15.50;99.90;;;;;;4980121;28;20616;-82
2023/05/22 07:05:17;;;;;;;10.47;5.17;;;15.60;99.90;;;;;;4979503;28;20227;-83
2023/05/22 07:07:43;;;;;;;9.37;4.27;;;15.60;99.90;;;;;;4958552;28;20488;-81
2023/05/22 07:10:09;;;;;;;10.47;3.93;;;15.70;99.90;;;;;;4980633;28;20230;-81
2023/05/22 07:12:35;;;;;;;14.67;5.00;;;15.70;99.90;;;;;;4978451;28;20204;-80
2023/05/22 07:15:04;;;;;;;5.47;3.37;;;15.80;99.90;;;;;;4977560;28;20220;-80
2023/05/22 07:17:30;;;;;;;6.00;3.93;;;15.90;99.90;;;;;;4977978;28;20224;-81
2023/05/22 07:19:56;;;;;;;6.57;3.87;;;15.90;99.90;;;;;;4979566;28;20270;-80
2023/05/22 07:22:22;;;;;;;8.20;3.90;;;15.90;99.90;;;;;;4979019;28;20212;-81
2023/05/22 07:24:47;;;;;;;8.37;4.87;;;16.00;99.90;;;;;;4981078;28;20208;-83
2023/05/22 07:27:13;;;;;;;6.40;3.97;;;16.10;99.90;;;;;;4981420;28;20596;-84
2023/05/22 07:29:39;;;;;;;6.17;4.33;;;16.20;99.90;;;;;;4965480;28;20631;-82
2023/05/22 07:32:05;;;;;;;6.40;4.03;;;16.10;99.90;;;;;;4982306;28;20212;-83
2023/05/22 07:34:33;;;;;;;4.43;3.77;;;16.10;99.90;;;;;;4981409;28;20310;-84
2023/05/22 07:37:06;;;;;;;9.73;4.23;;;16.10;99.90;;;;;;4981834;28;20239;-84
2023/05/22 07:39:32;;;;;;;7.00;3.77;;;16.10;99.90;;;;;;4998008;28;20184;-83
2023/05/22 07:41:57;;;;;;;5.93;3.23;;;16.10;99.90;;;;;;4965536;28;20239;-82
2023/05/22 07:44:23;;;;;;;9.70;4.57;;;16.10;99.90;;;;;;4966558;28;20220;-82
2023/05/22 07:46:50;;;;;;;6.20;2.90;;;16.20;99.90;;;;;;4981081;28;20212;-82
2023/05/22 07:49:20;;;;;;;6.20;3.40;;;16.20;99.90;;;;;;4983177;28;20232;-83
2023/05/22 07:51:46;;;;;;;7.50;3.80;;;16.20;99.90;;;;;;4982226;28;20200;-82
2023/05/22 07:54:13;;;;;;;5.93;2.90;;;16.30;99.90;;;;;;4964895;28;20239;-82
2023/05/22 07:56:41;;;;;;;7.60;4.17;;;16.40;99.90;;;;;;4981316;28;20696;-82
2023/05/22 07:59:10;;;;;;;12.20;4.80;;;16.40;99.90;;;;;;4981862;28;20677;-82
2023/05/22 08:01:37;;;;;;;6.43;3.47;;;16.50;99.90;;;;;;4981302;28;20228;-83
2023/05/22 08:04:04;;;;;;;4.00;3.60;;;16.60;99.90;;;;;;4980817;28;20192;-83
2023/05/22 08:06:30;;;;;;;4.70;2.80;;;16.50;99.90;;;;;;4981372;28;20219;-82
2023/05/22 08:08:56;;;;;;;2.80;2.17;;;16.30;99.90;;;;;;4981918;28;20319;-83
2023/05/22 08:11:21;;;;;;;9.50;3.53;;;16.30;99.90;;;;;;4981021;28;20715;-83
2023/05/22 08:13:47;;;;;;;6.47;2.70;;;16.30;99.90;;;;;;4965655;28;20727;-83
2023/05/22 08:16:13;;;;;;;3.93;3.50;;;16.40;99.90;;;;;;4982426;28;20223;-83
2023/05/22 08:18:39;;;;;;;3.53;2.90;;;16.50;99.90;;;;;;4948414;28;20192;-83
2023/05/22 08:21:05;;;;;;;11.63;2.83;;;16.40;99.90;;;;;;4964666;28;20297;-82
2023/05/22 08:23:31;;;;;;;3.67;2.77;;;16.50;99.90;;;;;;4979639;28;20223;-83
2023/05/22 08:25:57;;;;;;;4.47;2.33;;;16.60;99.90;;;;;;4963889;28;20251;-82
2023/05/22 08:28:23;;;;;;;5.13;3.93;;;16.70;99.90;;;;;;4964127;28;20262;-82
2023/05/22 08:30:49;;;;;;;4.20;2.40;;;16.80;99.90;;;;;;4979732;28;20225;-83
2023/05/22 08:33:15;;;;;;;9.93;2.63;;;16.70;99.90;;;;;;4981664;28;20227;-85
2023/05/22 08:35:41;;;;;;;3.90;2.53;;;16.80;99.90;;;;;;4964213;28;20234;-82
2023/05/22 08:38:06;;;;;;;4.17;2.47;;;17.00;99.90;;;;;;4964759;28;20593;-85
2023/05/22 08:40:37;;;;;;;8.27;2.40;;;17.00;99.90;;;;;;4982699;28;20220;-85
2023/05/22 08:43:04;;;;;;;6.27;2.53;;;17.00;99.90;;;;;;4981990;28;20192;-83
2023/05/22 08:45:32;;;;;;;4.00;2.30;;;17.20;99.90;;;;;;4983965;28;20199;-84
2023/05/22 08:48:01;;;;;;;3.70;2.33;;;17.20;99.90;;;;;;4982880;28;20713;-84
2023/05/22 08:50:27;;;;;;;2.63;1.80;;;17.30;99.90;;;;;;4984480;28;20212;-85
2023/05/22 08:52:57;;;;;;;7.10;2.47;;;17.20;99.90;;;;;;4983423;28;20289;-84
2023/05/22 08:55:24;;;;;;;3.00;2.10;;;17.20;99.90;;;;;;4983207;28;20223;-83
2023/05/22 08:57:51;;;;;;;2.70;2.20;;;17.30;99.90;;;;;;4983362;28;20203;-84
2023/05/22 09:00:18;;;;;;;4.43;2.67;;;17.30;99.90;;;;;;4983373;28;20192;-84
2023/05/22 09:02:45;;;;;;;3.97;1.93;;;17.40;99.90;;;;;;4966912;28;20593;-85
2023/05/22 09:05:11;;;;;;;2.90;2.23;;;17.40;99.90;;;;;;4966587;28;20230;-85
2023/05/22 09:07:39;;;;;;;4.80;1.77;;;17.50;99.90;;;;;;4982760;28;20241;-83
2023/05/22 09:10:06;;;;;;;3.70;1.70;;;17.60;99.90;;;;;;4967191;28;20202;-85
2023/05/22 09:12:32;;;;;;;3.13;2.27;;;17.80;99.90;;;;;;4966083;28;20195;-82
2023/05/22 09:15:08;;;;;;;2.13;1.90;;;17.90;99.90;;;;;;4997871;28;20700;-83
2023/05/22 09:17:37;;;;;;;3.80;1.80;;;18.00;99.90;;;;;;4981409;28;20215;-83
2023/05/22 09:20:04;;;;;;;2.67;1.60;;;18.10;99.90;;;;;;4998907;28;20227;-82
2023/05/22 09:22:37;;;;;;;3.67;2.57;;;18.30;99.90;;;;;;4998083;28;21126;-85
2023/05/22 09:25:03;;;;;;;2.10;1.90;;;18.50;99.90;;;;;;4983123;28;20192;-84
2023/05/22 09:27:29;;;;;;;2.43;2.10;;;18.80;99.90;;;;;;4982906;28;20252;-85
2023/05/22 09:29:56;;;;;;;2.60;2.33;;;18.90;99.90;;;;;;4983668;28;20712;-82
2023/05/22 09:32:22;;;;;;;3.20;2.17;;;18.90;99.90;;;;;;4995661;28;20207;-84
2023/05/22 09:34:49;;;;;;;2.77;2.57;;;18.90;99.90;;;;;;4995257;28;20242;-83
2023/05/22 09:37:16;;;;;;;3.13;2.40;;;18.80;99.90;;;;;;4978226;28;20336;-83
2023/05/22 09:39:46;;;;;;;2.03;1.87;;;18.80;99.90;;;;;;4979709;28;20627;-83
2023/05/22 09:42:15;;;;;;;3.50;2.00;;;18.90;99.90;;;;;;4980217;28;20329;-83
2023/05/22 09:44:43;;;;;;;3.30;1.93;;;18.80;99.90;;;;;;4983365;28;20698;-83
2023/05/22 09:47:08;;;;;;;4.90;2.10;;;18.60;99.90;;;;;;4984072;28;20215;-84
2023/05/22 09:49:44;;;;;;;5.07;2.73;;;18.60;99.90;;;;;;4984673;28;20228;-85
2023/05/22 09:52:11;;;;;;;4.07;3.03;;;18.60;99.90;;;;;;4987170;28;20253;-82
2023/05/22 09:54:54;;;;;;;4.23;3.20;;;18.70;99.90;;;;;;4970154;28;20223;-85
2023/05/22 09:57:21;;;;;;;6.73;3.27;;;19.10;99.90;;;;;;4986760;28;20715;-85
2023/05/22 09:59:53;;;;;;;4.63;3.43;;;19.50;99.90;;;;;;4986096;28;20211;-82
2023/05/22 10:02:24;;;;;;;4.57;4.17;;;20.00;99.90;;;;;;4969904;28;20243;-83
2023/05/22 10:04:51;;;;;;;4.73;3.37;;;20.20;99.90;;;;;;4973136;28;20243;-84
2023/05/22 10:07:46;;;;;;;5.37;4.10;;;20.00;99.90;;;;;;4977869;28;20227;-84
2023/05/22 10:10:15;;;;;;;7.17;4.03;;;19.90;99.90;;;;;;4976919;28;20219;-83
2023/05/22 10:12:43;;;;;;;7.83;4.37;;;19.90;99.90;;;;;;4976596;28;20192;-84
2023/05/22 10:15:10;;;;;;;4.80;3.57;;;19.80;99.90;;;;;;4979753;28;20453;-84
2023/05/22 10:17:38;;;;;;;3.93;3.23;;;19.40;99.90;;;;;;4980426;28;20230;-83
2023/05/22 10:20:06;;;;;;;10.77;3.63;;;19.40;99.90;;;;;;4983112;28;21615;-83
2023/05/22 10:22:38;;;;;;;7.03;4.60;;;19.60;99.90;;;;;;4981753;28;20216;-86
2023/05/22 10:25:05;;;;;;;9.10;4.60;;;19.60;99.90;;;;;;4982938;28;20282;-83
2023/05/22 10:27:31;;;;;;;7.23;4.67;;;20.00;99.90;;;;;;4982431;28;20669;-84
2023/05/22 10:30:16;;;;;;;6.17;5.10;;;20.10;99.90;;;;;;4981644;28;20270;-84
2023/05/22 10:33:17;;;;;;;6.40;4.60;;;20.50;99.90;;;;;;4998531;28;20293;-85
2023/05/22 10:36:11;;;;;;;7.10;5.37;;;21.50;99.90;;;;;;4922747;29;20221;-83
2023/05/22 10:39:22;;;;;;;9.63;5.30;;;22.30;99.90;;;;;;4972441;28;20603;-85
2023/05/22 10:41:48;;;;;;;8.63;5.83;;;23.70;99.90;;;;;;4982526;28;20228;-84
2023/05/22 10:44:14;;;;;;;7.10;5.03;;;23.60;99.90;;;;;;4982000;28;20730;-85
2023/05/22 10:46:47;;;;;;;7.57;5.53;;;22.80;99.90;;;;;;4984207;28;20302;-86
2023/05/22 10:49:21;;;;;;;6.07;3.58;;;23.00;99.90;;;;;;4968582;28;20219;-85
2023/05/22 10:51:47;;;;;;;10.98;5.63;;;21.80;99.90;;;;;;5002611;28;20184;-86
2023/05/22 10:54:12;;;;;;;7.15;4.45;;;21.90;99.90;;;;;;4969285;28;20678;-88
2023/05/22 10:56:39;;;;;;;5.72;4.70;;;21.30;99.90;;;;;;4985812;28;20232;-86
2023/05/22 10:59:06;;;;;;;8.13;4.63;;;21.40;99.90;;;;;;5001625;28;20306;-85
2023/05/22 11:01:39;;;;;;;4.63;3.78;;;21.60;99.90;;;;;;4985406;28;20223;-89
2023/05/22 11:04:10;;;;;;;9.07;4.25;;;21.10;99.90;;;;;;4986232;28;20565;-85
2023/05/22 11:07:01;;;;;;;4.53;3.80;;;21.50;99.90;;;;;;4985773;28;20184;-86
2023/05/22 11:09:47;;;;;;;5.25;3.42;;;21.70;99.90;;;;;;4986293;28;20219;-86
2023/05/22 11:12:23;;;;;;;6.40;4.17;;;21.30;99.90;;;;;;5001375;28;20226;-86
2023/05/22 11:14:56;;;;;;;5.57;4.55;;;21.10;99.90;;;;;;4986246;28;20246;-87
2023/05/22 11:17:30;;;;;;;6.97;3.70;;;20.70;99.90;;;;;;4986563;28;20230;-85
2023/05/22 11:20:01;;;;;;;10.90;4.60;;;20.90;99.90;;;;;;4986529;28;20338;-83
2023/05/22 11:22:34;;;;;;;6.17;4.20;;;20.90;99.90;;;;;;4986771;28;20234;-83
2023/05/22 11:25:03;;;;;;;6.13;4.43;;;20.90;99.90;;;;;;4983957;28;20555;-86
2023/05/22 11:27:30;;;;;;;5.70;4.50;;;20.80;99.90;;;;;;4985361;28;20243;-84
2023/05/22 11:29:58;;;;;;;7.93;4.50;;;20.90;99.90;;;;;;4984899;28;20224;-85
2023/05/22 11:32:24;;;;;;;6.70;5.03;;;21.00;99.90;;;;;;4978136;28;20220;-84
2023/05/22 11:34:50;;;;;;;7.32;4.68;;;21.00;99.90;;;;;;4986352;28;20244;-84
2023/05/22 11:37:19;;;;;;;7.03;5.20;;;20.80;99.90;;;;;;4986218;28;20254;-89
2023/05/22 11:39:56;;;;;;;9.53;5.57;;;21.00;99.90;;;;;;4987067;28;20529;-88
2023/05/22 11:42:22;;;;;;;8.83;5.77;;;21.20;99.90;;;;;;4986147;28;20220;-84
2023/05/22 11:44:48;;;;;;;10.47;4.90;;;21.00;99.90;;;;;;4967579;28;20227;-85
2023/05/22 11:47:14;;;;;;;9.90;4.77;;;20.80;99.90;;;;;;5000054;28;20216;-85
2023/05/22 11:49:41;;;;;;;5.75;4.65;;;20.90;99.90;;;;;;4983039;28;21015;-83
2023/05/22 11:52:08;;;;;;;7.80;5.17;;;20.10;99.90;;;;;;4981676;28;20584;-84
2023/05/22 11:54:33;;;;;;;7.47;4.63;;;20.20;99.90;;;;;;4962945;28;20238;-86
2023/05/22 11:57:02;;;;;;;10.13;5.53;;;19.60;99.90;;;;;;4964169;28;20219;-86
2023/05/22 11:59:27;;;;;;;7.57;5.40;;;19.50;99.90;;;;;;4981716;28;20223;-85
2023/05/22 12:01:53;;;;;;;6.53;4.87;;;19.90;99.90;;;;;;4963577;28;20226;-85
2023/05/22 12:04:19;;;;;;;14.57;5.40;;;19.90;99.90;;;;;;4980516;28;20222;-85
2023/05/22 12:06:45;;;;;;;8.77;4.73;;;20.10;99.90;;;;;;4964118;28;20184;-84
2023/05/22 12:09:11;;;;;;;7.73;4.70;;;20.10;99.90;;;;;;4996518;28;20310;-84
2023/05/22 12:11:37;;;;;;;7.70;5.33;;;20.00;99.90;;;;;;4981022;28;20307;-85
2023/05/22 12:14:03;;;;;;;10.50;5.83;;;19.90;99.90;;;;;;4980410;28;20854;-84
2023/05/22 12:16:37;;;;;;;8.77;5.73;;;20.00;99.90;;;;;;4979798;28;20231;-85
2023/05/22 12:19:07;;;;;;;7.53;5.03;;;19.80;99.90;;;;;;4981855;28;20599;-84
2023/05/22 12:21:35;;;;;;;10.27;5.13;;;20.00;99.90;;;;;;4982637;28;20188;-85
2023/05/22 12:24:05;;;;;;;8.00;5.47;;;19.70;99.90;;;;;;4963662;28;20219;-83
2023/05/22 12:26:31;;;;;;;8.17;5.63;;;19.50;99.90;;;;;;4964782;28;20239;-85
2023/05/22 12:29:00;;;;;;;9.23;5.27;;;19.60;99.90;;;;;;4963218;28;20231;-84
2023/05/22 12:31:26;;;;;;;5.27;4.53;;;19.50;99.90;;;;;;4965344;28;20231;-86
2023/05/22 12:33:56;;;;;;;5.47;4.17;;;19.00;99.90;;;;;;4980520;28;20386;-85
2023/05/22 12:36:37;;;;;;;5.73;4.40;;;19.20;99.90;;;;;;4962848;28;20196;-84
2023/05/22 12:39:10;;;;;;;6.50;3.63;;;18.90;99.90;;;;;;4980469;28;20220;-84
2023/05/22 12:41:36;;;;;;;5.17;4.67;;;19.20;99.90;;;;;;4982164;28;20227;-84